AUA3333 LOWW-OMDB
Flight info
| Callsign | AUA3333 |
|---|---|
| Flight time | N/A |
| Altitude | 41000 |
| Route | ADAMA Z648 VEDER L140 ALAMU DCT EPARI DCT BUDOP DCT ARGES DCT ARTAT UP975 ERGUN UL124 EVSAS UM688 RATVO M688 SIDAD P975 SESRU M677 VUTEB |
| Aircraft | A343/H-SDE2E3FGHIJ4J5M1RWXY/LB1D1 |
Departure
| Time | 2026-05-06 08:48 |
|---|---|
| Airport | Vienna International Airport (LOWW) |
Arrival
| Time | N/A |
|---|---|
| Airport | Dubai International Airport (OMDB) |
| Time | Latitude | Longitude | Altitude | Speed | Heading |
|---|---|---|---|---|---|
| 2026-05-06 08:35 | 48.11740 | 16.56705 | 612 ft | 0 kts | 25° |
| 2026-05-06 08:39 | 48.11727 | 16.56695 | 612 ft | 3 kts | 27° |
| 2026-05-06 08:39 | 48.11709 | 16.56681 | 612 ft | 3 kts | 31° |
| 2026-05-06 08:39 | 48.11692 | 16.56664 | 621 ft | 3 kts | 41° |
| 2026-05-06 08:39 | 48.11679 | 16.56643 | 612 ft | 3 kts | 66° |
| 2026-05-06 08:40 | 48.11676 | 16.56621 | 612 ft | 2 kts | 115° |
| 2026-05-06 08:40 | 48.11676 | 16.56619 | 612 ft | 0 kts | 116° |
| 2026-05-06 08:43 | 48.11663 | 16.56660 | 625 ft | 7 kts | 116° |
| 2026-05-06 08:43 | 48.11633 | 16.56753 | 620 ft | 12 kts | 116° |
| 2026-05-06 08:44 | 48.11587 | 16.56891 | 624 ft | 17 kts | 116° |
| 2026-05-06 08:44 | 48.11529 | 16.57071 | 624 ft | 21 kts | 116° |
| 2026-05-06 08:44 | 48.11495 | 16.57172 | 621 ft | 1 kts | 116° |
| 2026-05-06 08:44 | 48.11482 | 16.57213 | 612 ft | 7 kts | 116° |
| 2026-05-06 08:45 | 48.11452 | 16.57307 | 624 ft | 13 kts | 116° |
| 2026-05-06 08:45 | 48.11387 | 16.57384 | 623 ft | 11 kts | 189° |
| 2026-05-06 08:45 | 48.11310 | 16.57330 | 624 ft | 15 kts | 206° |
| 2026-05-06 08:45 | 48.11201 | 16.57251 | 612 ft | 20 kts | 206° |
| 2026-05-06 08:46 | 48.11074 | 16.57155 | 627 ft | 8 kts | 216° |
| 2026-05-06 08:46 | 48.11062 | 16.57137 | 624 ft | 5 kts | 230° |
| 2026-05-06 08:46 | 48.11061 | 16.57084 | 624 ft | 7 kts | 282° |
| 2026-05-06 08:46 | 48.11068 | 16.57063 | 619 ft | 0 kts | 296° |
| 2026-05-06 08:47 | 48.11102 | 16.56957 | 627 ft | 39 kts | 296° |
| 2026-05-06 08:47 | 48.11308 | 16.56318 | 619 ft | 95 kts | 296° |
| 2026-05-06 08:47 | 48.11673 | 16.55201 | 624 ft | 142 kts | 296° |
| 2026-05-06 08:47 | 48.12157 | 16.53709 | 741 ft | 168 kts | 296° |
| 2026-05-06 08:48 | 48.12493 | 16.52049 | 1126 ft | 177 kts | 266° |
| 2026-05-06 08:48 | 48.11906 | 16.50423 | 1521 ft | 180 kts | 211° |
| 2026-05-06 08:48 | 48.10795 | 16.49610 | 2060 ft | 188 kts | 201° |
| 2026-05-06 08:48 | 48.09512 | 16.48688 | 2311 ft | 222 kts | 206° |
| 2026-05-06 08:49 | 48.08069 | 16.47583 | 2810 ft | 239 kts | 197° |
| 2026-05-06 08:49 | 48.06418 | 16.47326 | 3655 ft | 243 kts | 174° |
| 2026-05-06 08:49 | 48.04715 | 16.47637 | 4464 ft | 250 kts | 172° |
| 2026-05-06 08:49 | 48.02975 | 16.48015 | 5300 ft | 256 kts | 172° |
| 2026-05-06 08:50 | 48.01207 | 16.48384 | 6258 ft | 257 kts | 172° |
| 2026-05-06 08:50 | 47.99427 | 16.48738 | 7144 ft | 259 kts | 173° |
| 2026-05-06 08:50 | 47.97623 | 16.49106 | 7985 ft | 264 kts | 172° |
| 2026-05-06 08:50 | 47.95862 | 16.49947 | 8799 ft | 271 kts | 154° |
| 2026-05-06 08:51 | 47.94393 | 16.51776 | 9583 ft | 284 kts | 131° |
| 2026-05-06 08:51 | 47.93529 | 16.54498 | 10194 ft | 303 kts | 106° |
| 2026-05-06 08:51 | 47.93556 | 16.57758 | 10480 ft | 332 kts | 77° |
| 2026-05-06 08:51 | 47.94658 | 16.60886 | 10753 ft | 354 kts | 50° |
| 2026-05-06 08:52 | 47.96269 | 16.63755 | 11118 ft | 367 kts | 58° |
| 2026-05-06 08:52 | 47.97320 | 16.67244 | 11697 ft | 372 kts | 72° |
| 2026-05-06 08:52 | 47.98175 | 16.70938 | 12287 ft | 379 kts | 72° |
| 2026-05-06 08:52 | 47.99024 | 16.74690 | 12947 ft | 384 kts | 72° |
| 2026-05-06 08:53 | 47.99685 | 16.78569 | 13600 ft | 388 kts | 84° |
| 2026-05-06 08:53 | 47.99974 | 16.82590 | 14209 ft | 391 kts | 87° |
| 2026-05-06 08:53 | 48.00195 | 16.86649 | 14865 ft | 394 kts | 87° |
| 2026-05-06 08:53 | 48.00415 | 16.90745 | 15539 ft | 397 kts | 87° |
| 2026-05-06 08:54 | 48.00642 | 16.94878 | 16205 ft | 400 kts | 87° |
| 2026-05-06 08:54 | 48.00872 | 16.99030 | 16861 ft | 403 kts | 86° |
| 2026-05-06 08:54 | 48.01045 | 17.03228 | 17503 ft | 406 kts | 92° |
| 2026-05-06 08:54 | 48.00862 | 17.07438 | 18164 ft | 407 kts | 98° |
| 2026-05-06 08:55 | 48.00543 | 17.11659 | 18708 ft | 411 kts | 98° |
| 2026-05-06 08:55 | 48.00207 | 17.15912 | 19264 ft | 414 kts | 98° |
| 2026-05-06 08:55 | 47.99870 | 17.20192 | 19816 ft | 417 kts | 98° |
| 2026-05-06 08:55 | 47.99533 | 17.24509 | 20370 ft | 419 kts | 99° |
| 2026-05-06 08:56 | 47.99194 | 17.28843 | 20974 ft | 421 kts | 99° |
| 2026-05-06 08:56 | 47.98801 | 17.33199 | 21447 ft | 425 kts | 103° |
| 2026-05-06 08:56 | 47.98112 | 17.37486 | 21981 ft | 426 kts | 108° |
| 2026-05-06 08:56 | 47.97261 | 17.41728 | 22519 ft | 428 kts | 110° |
| 2026-05-06 08:57 | 47.96326 | 17.45961 | 23026 ft | 430 kts | 111° |
| 2026-05-06 08:57 | 47.95371 | 17.50139 | 23541 ft | 432 kts | 112° |
| 2026-05-06 08:57 | 47.94394 | 17.54398 | 23953 ft | 435 kts | 112° |
| 2026-05-06 08:57 | 47.93419 | 17.58687 | 24354 ft | 438 kts | 111° |
| 2026-05-06 08:58 | 47.92435 | 17.63062 | 24753 ft | 441 kts | 111° |
| 2026-05-06 08:58 | 47.91462 | 17.67426 | 25113 ft | 445 kts | 111° |
| 2026-05-06 08:58 | 47.90487 | 17.71816 | 25506 ft | 448 kts | 111° |
| 2026-05-06 08:58 | 47.89521 | 17.76174 | 25887 ft | 450 kts | 111° |
| 2026-05-06 08:59 | 47.88522 | 17.80672 | 26282 ft | 452 kts | 111° |
| 2026-05-06 08:59 | 47.87544 | 17.85069 | 26656 ft | 454 kts | 111° |
| 2026-05-06 08:59 | 47.86546 | 17.89540 | 27025 ft | 457 kts | 111° |
| 2026-05-06 08:59 | 47.85538 | 17.94043 | 27387 ft | 459 kts | 111° |
| 2026-05-06 09:00 | 47.84421 | 17.98495 | 27739 ft | 460 kts | 116° |
| 2026-05-06 09:00 | 47.83136 | 18.02870 | 28063 ft | 462 kts | 117° |
| 2026-05-06 09:00 | 47.81802 | 18.07248 | 28314 ft | 466 kts | 117° |
| 2026-05-06 09:00 | 47.80434 | 18.11637 | 28632 ft | 469 kts | 117° |
| 2026-05-06 09:01 | 47.79051 | 18.16032 | 28974 ft | 471 kts | 117° |
| 2026-05-06 09:01 | 47.77654 | 18.20455 | 29305 ft | 473 kts | 117° |
| 2026-05-06 09:01 | 47.76253 | 18.24890 | 29630 ft | 475 kts | 117° |
| 2026-05-06 09:01 | 47.74881 | 18.29374 | 29932 ft | 479 kts | 114° |
| 2026-05-06 09:02 | 47.73848 | 18.34101 | 30203 ft | 484 kts | 105° |
| 2026-05-06 09:02 | 47.73245 | 18.39036 | 30405 ft | 488 kts | 100° |
| 2026-05-06 09:02 | 47.72787 | 18.44044 | 30638 ft | 491 kts | 98° |
| 2026-05-06 09:02 | 47.72520 | 18.47386 | 30801 ft | 492 kts | 98° |
| 2026-05-06 09:03 | 47.72145 | 18.52448 | 31036 ft | 495 kts | 97° |
| 2026-05-06 09:03 | 47.71778 | 18.57537 | 31279 ft | 496 kts | 97° |
| 2026-05-06 09:03 | 47.71407 | 18.62636 | 31598 ft | 496 kts | 98° |
| 2026-05-06 09:03 | 47.71027 | 18.67723 | 31950 ft | 496 kts | 98° |
| 2026-05-06 09:04 | 47.70638 | 18.72808 | 32283 ft | 495 kts | 98° |
| 2026-05-06 09:04 | 47.70241 | 18.77880 | 32590 ft | 495 kts | 98° |
| 2026-05-06 09:04 | 47.69840 | 18.82945 | 32897 ft | 494 kts | 98° |
| 2026-05-06 09:04 | 47.69435 | 18.88011 | 33299 ft | 492 kts | 98° |
| 2026-05-06 09:05 | 47.68975 | 18.93026 | 33647 ft | 490 kts | 102° |
| 2026-05-06 09:05 | 47.68121 | 18.97910 | 33967 ft | 487 kts | 111° |
| 2026-05-06 09:05 | 47.66795 | 19.02511 | 34249 ft | 484 kts | 119° |
| 2026-05-06 09:05 | 47.65244 | 19.06940 | 34510 ft | 483 kts | 121° |
| 2026-05-06 09:06 | 47.63622 | 19.11290 | 34764 ft | 482 kts | 122° |
| 2026-05-06 09:06 | 47.61964 | 19.15609 | 35031 ft | 481 kts | 123° |
| 2026-05-06 09:06 | 47.60298 | 19.19904 | 35284 ft | 481 kts | 123° |
| 2026-05-06 09:06 | 47.58631 | 19.24201 | 35506 ft | 481 kts | 123° |
| 2026-05-06 09:07 | 47.56969 | 19.28498 | 35737 ft | 481 kts | 123° |
| 2026-05-06 09:07 | 47.55334 | 19.32740 | 35973 ft | 480 kts | 123° |
| 2026-05-06 09:07 | 47.53683 | 19.37033 | 36206 ft | 480 kts | 123° |
| 2026-05-06 09:07 | 47.52033 | 19.41325 | 36424 ft | 480 kts | 123° |
| 2026-05-06 09:08 | 47.50382 | 19.45615 | 36648 ft | 480 kts | 123° |
| 2026-05-06 09:08 | 47.48730 | 19.49901 | 36851 ft | 479 kts | 123° |
| 2026-05-06 09:08 | 47.47080 | 19.54177 | 37063 ft | 479 kts | 123° |
| 2026-05-06 09:08 | 47.45426 | 19.58454 | 37221 ft | 480 kts | 123° |
| 2026-05-06 09:09 | 47.43765 | 19.62742 | 37419 ft | 480 kts | 123° |
| 2026-05-06 09:09 | 47.42105 | 19.67021 | 37611 ft | 480 kts | 123° |
| 2026-05-06 09:09 | 47.40444 | 19.71298 | 37835 ft | 480 kts | 123° |
| 2026-05-06 09:09 | 47.38784 | 19.75566 | 38043 ft | 479 kts | 123° |
| 2026-05-06 09:10 | 47.37124 | 19.79824 | 38237 ft | 479 kts | 123° |
| 2026-05-06 09:10 | 47.35462 | 19.84083 | 38419 ft | 479 kts | 123° |
| 2026-05-06 09:10 | 47.33801 | 19.88331 | 38604 ft | 479 kts | 123° |
| 2026-05-06 09:10 | 47.32135 | 19.92583 | 38739 ft | 479 kts | 123° |
| 2026-05-06 09:11 | 47.30470 | 19.96829 | 38859 ft | 479 kts | 123° |
| 2026-05-06 09:11 | 47.28802 | 20.01073 | 38991 ft | 479 kts | 123° |
| 2026-05-06 09:11 | 47.27131 | 20.05318 | 39129 ft | 479 kts | 123° |
| 2026-05-06 09:11 | 47.25462 | 20.09554 | 39266 ft | 478 kts | 123° |
| 2026-05-06 09:12 | 47.23790 | 20.13791 | 39401 ft | 478 kts | 123° |
| 2026-05-06 09:12 | 47.22122 | 20.18009 | 39534 ft | 478 kts | 123° |
| 2026-05-06 09:12 | 47.20449 | 20.22234 | 39651 ft | 478 kts | 123° |
| 2026-05-06 09:13 | 47.17100 | 20.30671 | 39852 ft | 479 kts | 123° |
| 2026-05-06 09:13 | 47.15420 | 20.34895 | 39979 ft | 478 kts | 123° |
| 2026-05-06 09:13 | 47.13743 | 20.39103 | 40085 ft | 478 kts | 123° |
| 2026-05-06 09:13 | 47.12062 | 20.43315 | 40196 ft | 478 kts | 123° |
| 2026-05-06 09:14 | 47.10378 | 20.47528 | 40296 ft | 478 kts | 123° |
| 2026-05-06 09:14 | 47.08697 | 20.51729 | 40397 ft | 478 kts | 123° |
| 2026-05-06 09:14 | 47.07012 | 20.55931 | 40495 ft | 478 kts | 123° |
| 2026-05-06 09:14 | 47.05324 | 20.60135 | 40601 ft | 478 kts | 123° |
| 2026-05-06 09:15 | 47.03638 | 20.64327 | 40690 ft | 478 kts | 123° |
| 2026-05-06 09:15 | 47.00250 | 20.72731 | 40847 ft | 479 kts | 123° |
| 2026-05-06 09:16 | 46.96880 | 20.81065 | 40967 ft | 481 kts | 123° |
| 2026-05-06 09:16 | 46.93456 | 20.89506 | 40969 ft | 484 kts | 123° |
| 2026-05-06 09:17 | 46.90018 | 20.97958 | 40974 ft | 482 kts | 123° |
| 2026-05-06 09:17 | 46.86562 | 21.06428 | 40980 ft | 482 kts | 123° |
| 2026-05-06 09:18 | 46.83145 | 21.14776 | 40979 ft | 482 kts | 123° |
| 2026-05-06 09:18 | 46.79699 | 21.23168 | 40976 ft | 482 kts | 123° |
| 2026-05-06 09:19 | 46.76244 | 21.31556 | 40992 ft | 483 kts | 123° |
| 2026-05-06 09:19 | 46.72779 | 21.39944 | 40989 ft | 483 kts | 123° |
| 2026-05-06 09:20 | 46.69308 | 21.48321 | 40990 ft | 483 kts | 123° |
| 2026-05-06 09:20 | 46.65758 | 21.56634 | 40996 ft | 483 kts | 124° |
| 2026-05-06 09:21 | 46.62075 | 21.64789 | 40994 ft | 483 kts | 125° |
| 2026-05-06 09:21 | 46.58380 | 21.72945 | 41000 ft | 483 kts | 124° |
| 2026-05-06 09:22 | 46.54707 | 21.81101 | 41001 ft | 483 kts | 124° |
| 2026-05-06 09:22 | 46.51035 | 21.89266 | 41010 ft | 483 kts | 124° |
| 2026-05-06 09:23 | 46.47356 | 21.97427 | 41013 ft | 483 kts | 124° |
| 2026-05-06 09:23 | 46.43668 | 22.05580 | 40997 ft | 484 kts | 124° |
| 2026-05-06 09:24 | 46.39971 | 22.13729 | 41019 ft | 484 kts | 124° |
| 2026-05-06 09:24 | 46.36270 | 22.21861 | 41005 ft | 483 kts | 124° |
| 2026-05-06 09:25 | 46.32567 | 22.29975 | 41004 ft | 483 kts | 124° |
| 2026-05-06 09:25 | 46.28858 | 22.38079 | 41024 ft | 483 kts | 124° |
| 2026-05-06 09:26 | 46.25146 | 22.46165 | 41010 ft | 483 kts | 124° |
| 2026-05-06 09:26 | 46.21426 | 22.54245 | 41025 ft | 483 kts | 124° |
| 2026-05-06 09:27 | 46.17708 | 22.62298 | 41017 ft | 482 kts | 124° |
| 2026-05-06 09:27 | 46.13992 | 22.70324 | 41025 ft | 481 kts | 124° |
| 2026-05-06 09:28 | 46.10287 | 22.78301 | 41018 ft | 482 kts | 124° |
| 2026-05-06 09:28 | 46.06519 | 22.86393 | 41012 ft | 483 kts | 124° |
| 2026-05-06 09:29 | 46.02781 | 22.94397 | 41008 ft | 481 kts | 124° |
| 2026-05-06 09:29 | 45.99040 | 23.02387 | 41009 ft | 481 kts | 124° |
| 2026-05-06 09:30 | 45.95317 | 23.10312 | 41006 ft | 481 kts | 124° |
| 2026-05-06 09:30 | 45.91540 | 23.18332 | 41007 ft | 481 kts | 124° |
| 2026-05-06 09:31 | 45.87808 | 23.26231 | 41004 ft | 481 kts | 124° |
| 2026-05-06 09:31 | 45.84045 | 23.34176 | 40989 ft | 481 kts | 124° |
| 2026-05-06 09:32 | 45.80283 | 23.42098 | 41008 ft | 481 kts | 124° |
| 2026-05-06 09:32 | 45.76511 | 23.50016 | 41013 ft | 481 kts | 124° |
| 2026-05-06 09:33 | 45.72734 | 23.57924 | 41015 ft | 481 kts | 124° |
| 2026-05-06 09:33 | 45.68947 | 23.65830 | 41018 ft | 481 kts | 124° |
| 2026-05-06 09:34 | 45.65158 | 23.73719 | 41023 ft | 482 kts | 124° |
| 2026-05-06 09:34 | 45.61361 | 23.81601 | 41021 ft | 481 kts | 124° |
| 2026-05-06 09:35 | 45.57558 | 23.89474 | 41027 ft | 482 kts | 124° |
| 2026-05-06 09:35 | 45.53753 | 23.97331 | 41027 ft | 481 kts | 124° |
| 2026-05-06 09:36 | 45.49935 | 24.05190 | 41023 ft | 482 kts | 124° |
| 2026-05-06 09:36 | 45.46118 | 24.13029 | 41021 ft | 481 kts | 124° |
| 2026-05-06 09:37 | 45.42297 | 24.20851 | 41026 ft | 481 kts | 125° |
| 2026-05-06 09:37 | 45.38468 | 24.28668 | 41025 ft | 481 kts | 124° |
| 2026-05-06 09:38 | 45.34638 | 24.36467 | 41029 ft | 481 kts | 124° |
| 2026-05-06 09:38 | 45.30803 | 24.44256 | 41027 ft | 482 kts | 124° |
| 2026-05-06 09:39 | 45.26954 | 24.52051 | 41026 ft | 482 kts | 124° |
| 2026-05-06 09:39 | 45.23101 | 24.59835 | 41027 ft | 482 kts | 125° |
| 2026-05-06 09:40 | 45.19243 | 24.67605 | 41026 ft | 482 kts | 125° |
| 2026-05-06 09:40 | 45.13450 | 24.79234 | 41027 ft | 481 kts | 125° |
| 2026-05-06 09:41 | 45.09583 | 24.86968 | 41025 ft | 481 kts | 125° |
| 2026-05-06 09:41 | 45.05739 | 24.94637 | 41025 ft | 481 kts | 125° |
| 2026-05-06 09:42 | 45.01839 | 25.02399 | 41027 ft | 481 kts | 125° |
| 2026-05-06 09:42 | 44.97984 | 25.10048 | 41034 ft | 481 kts | 125° |
| 2026-05-06 09:43 | 44.94102 | 25.17730 | 41027 ft | 481 kts | 125° |
| 2026-05-06 09:43 | 44.90208 | 25.25417 | 41034 ft | 481 kts | 125° |
| 2026-05-06 09:44 | 44.86313 | 25.33084 | 41035 ft | 481 kts | 125° |
| 2026-05-06 09:44 | 44.82411 | 25.40747 | 41035 ft | 481 kts | 125° |
| 2026-05-06 09:45 | 44.78503 | 25.48398 | 41043 ft | 481 kts | 125° |
| 2026-05-06 09:45 | 44.74595 | 25.56029 | 41039 ft | 480 kts | 125° |
| 2026-05-06 09:46 | 44.70687 | 25.63641 | 41025 ft | 480 kts | 125° |
| 2026-05-06 09:46 | 44.66779 | 25.71234 | 41047 ft | 480 kts | 125° |
| 2026-05-06 09:47 | 44.62862 | 25.78824 | 41035 ft | 480 kts | 125° |
| 2026-05-06 09:47 | 44.58945 | 25.86392 | 41053 ft | 479 kts | 125° |
| 2026-05-06 09:48 | 44.55021 | 25.93955 | 41051 ft | 479 kts | 125° |
| 2026-05-06 09:48 | 44.51088 | 26.01515 | 41033 ft | 480 kts | 125° |
| 2026-05-06 09:49 | 44.47150 | 26.09066 | 41041 ft | 480 kts | 125° |
| 2026-05-06 09:49 | 44.43870 | 26.15339 | 41045 ft | 480 kts | 125° |
| 2026-05-06 09:50 | 44.39919 | 26.22878 | 41037 ft | 480 kts | 126° |
| 2026-05-06 09:50 | 44.35966 | 26.30402 | 41043 ft | 480 kts | 126° |
| 2026-05-06 09:51 | 44.32007 | 26.37916 | 41033 ft | 480 kts | 125° |
| 2026-05-06 09:51 | 44.28046 | 26.45417 | 41036 ft | 480 kts | 126° |
| 2026-05-06 09:52 | 44.24082 | 26.52904 | 41034 ft | 480 kts | 126° |
| 2026-05-06 09:52 | 44.20113 | 26.60379 | 41037 ft | 480 kts | 126° |
| 2026-05-06 09:53 | 44.16136 | 26.67850 | 41033 ft | 480 kts | 126° |
| 2026-05-06 09:53 | 44.12155 | 26.75311 | 41050 ft | 480 kts | 126° |
| 2026-05-06 09:54 | 44.08161 | 26.82775 | 41033 ft | 481 kts | 126° |
| 2026-05-06 09:54 | 44.04028 | 26.90084 | 41060 ft | 481 kts | 129° |
| 2026-05-06 09:55 | 43.99748 | 26.97234 | 41044 ft | 481 kts | 129° |
| 2026-05-06 09:55 | 43.95477 | 27.04381 | 41043 ft | 481 kts | 129° |
| 2026-05-06 09:56 | 43.91227 | 27.11551 | 41060 ft | 481 kts | 128° |
| 2026-05-06 09:56 | 43.86984 | 27.18723 | 41057 ft | 481 kts | 128° |
| 2026-05-06 09:57 | 43.82738 | 27.25886 | 41055 ft | 481 kts | 128° |
| 2026-05-06 09:57 | 43.78485 | 27.33041 | 41054 ft | 481 kts | 128° |
| 2026-05-06 09:58 | 43.74255 | 27.40138 | 41065 ft | 482 kts | 129° |
| 2026-05-06 09:58 | 43.69988 | 27.47278 | 41070 ft | 482 kts | 129° |
| 2026-05-06 09:59 | 43.65713 | 27.54413 | 41066 ft | 482 kts | 129° |
| 2026-05-06 09:59 | 43.61439 | 27.61530 | 41072 ft | 482 kts | 129° |
| 2026-05-06 10:00 | 43.57157 | 27.68645 | 41082 ft | 482 kts | 129° |
| 2026-05-06 10:00 | 43.52874 | 27.75742 | 41087 ft | 482 kts | 129° |
| 2026-05-06 10:01 | 43.48582 | 27.82835 | 41094 ft | 481 kts | 129° |
| 2026-05-06 10:01 | 43.44292 | 27.89909 | 41100 ft | 481 kts | 129° |
| 2026-05-06 10:02 | 43.39997 | 27.96973 | 41098 ft | 481 kts | 129° |
| 2026-05-06 10:02 | 43.35692 | 28.04037 | 41103 ft | 482 kts | 129° |
| 2026-05-06 10:03 | 43.31380 | 28.11096 | 41108 ft | 482 kts | 129° |
| 2026-05-06 10:03 | 43.27061 | 28.18147 | 41125 ft | 483 kts | 129° |
| 2026-05-06 10:04 | 43.22740 | 28.25187 | 41125 ft | 483 kts | 129° |
| 2026-05-06 10:04 | 43.18408 | 28.32226 | 41127 ft | 483 kts | 129° |
| 2026-05-06 10:05 | 43.14077 | 28.39248 | 41135 ft | 483 kts | 129° |
| 2026-05-06 10:05 | 43.09737 | 28.46267 | 41129 ft | 483 kts | 129° |
| 2026-05-06 10:06 | 43.05397 | 28.53269 | 41128 ft | 483 kts | 129° |
| 2026-05-06 10:06 | 43.01052 | 28.60263 | 41130 ft | 483 kts | 130° |
| 2026-05-06 10:07 | 42.96700 | 28.67249 | 41129 ft | 483 kts | 129° |
| 2026-05-06 10:07 | 42.92344 | 28.74228 | 41131 ft | 483 kts | 130° |
| 2026-05-06 10:08 | 42.87980 | 28.81201 | 41130 ft | 483 kts | 130° |
| 2026-05-06 10:08 | 42.83616 | 28.88158 | 41133 ft | 483 kts | 130° |
| 2026-05-06 10:09 | 42.79272 | 28.95067 | 41134 ft | 484 kts | 130° |
| 2026-05-06 10:09 | 42.74894 | 29.02014 | 41130 ft | 484 kts | 130° |
| 2026-05-06 10:10 | 42.70507 | 29.08958 | 41128 ft | 484 kts | 130° |
| 2026-05-06 10:10 | 42.66116 | 29.15892 | 41133 ft | 484 kts | 130° |
| 2026-05-06 10:11 | 42.61720 | 29.22818 | 41128 ft | 484 kts | 130° |
| 2026-05-06 10:11 | 42.57318 | 29.29737 | 41125 ft | 484 kts | 130° |
| 2026-05-06 10:12 | 42.52911 | 29.36648 | 41128 ft | 484 kts | 130° |
| 2026-05-06 10:12 | 42.48507 | 29.43536 | 41128 ft | 484 kts | 130° |
| 2026-05-06 10:13 | 42.44095 | 29.50421 | 41133 ft | 484 kts | 130° |
| 2026-05-06 10:13 | 42.39683 | 29.57293 | 41140 ft | 484 kts | 130° |
| 2026-05-06 10:14 | 42.35972 | 29.64823 | 41129 ft | 480 kts | 112° |
| 2026-05-06 10:14 | 42.33568 | 29.73225 | 41128 ft | 480 kts | 108° |
| 2026-05-06 10:15 | 42.31420 | 29.81763 | 41125 ft | 480 kts | 107° |
| 2026-05-06 10:15 | 42.29292 | 29.90311 | 41126 ft | 480 kts | 107° |
| 2026-05-06 10:16 | 42.27131 | 29.98842 | 41134 ft | 480 kts | 107° |
| 2026-05-06 10:16 | 42.24949 | 30.07357 | 41129 ft | 480 kts | 108° |
| 2026-05-06 10:17 | 42.22770 | 30.15809 | 41136 ft | 480 kts | 108° |
| 2026-05-06 10:17 | 42.20557 | 30.24366 | 41130 ft | 480 kts | 108° |
| 2026-05-06 10:18 | 42.18352 | 30.32867 | 41136 ft | 480 kts | 108° |
| 2026-05-06 10:18 | 42.16154 | 30.41311 | 41123 ft | 480 kts | 108° |
| 2026-05-06 10:19 | 42.13937 | 30.49800 | 41129 ft | 481 kts | 108° |
| 2026-05-06 10:19 | 42.11710 | 30.58297 | 41134 ft | 481 kts | 108° |
| 2026-05-06 10:20 | 42.09476 | 30.66789 | 41128 ft | 481 kts | 108° |
| 2026-05-06 10:20 | 42.07234 | 30.75282 | 41125 ft | 481 kts | 108° |
| 2026-05-06 10:21 | 42.04986 | 30.83769 | 41134 ft | 481 kts | 108° |
| 2026-05-06 10:21 | 42.02731 | 30.92251 | 41127 ft | 482 kts | 108° |
| 2026-05-06 10:22 | 42.00470 | 31.00729 | 41130 ft | 482 kts | 108° |
| 2026-05-06 10:22 | 41.98210 | 31.09194 | 41130 ft | 482 kts | 108° |
| 2026-05-06 10:23 | 41.95940 | 31.17666 | 41126 ft | 482 kts | 108° |
| 2026-05-06 10:23 | 41.93664 | 31.26132 | 41129 ft | 482 kts | 109° |
| 2026-05-06 10:24 | 41.91382 | 31.34589 | 41130 ft | 482 kts | 109° |
| 2026-05-06 10:24 | 41.89093 | 31.43047 | 41128 ft | 482 kts | 109° |
| 2026-05-06 10:25 | 41.86796 | 31.51502 | 41130 ft | 482 kts | 109° |
| 2026-05-06 10:25 | 41.84511 | 31.59890 | 41130 ft | 482 kts | 109° |
| 2026-05-06 10:26 | 41.82203 | 31.68333 | 41133 ft | 482 kts | 109° |
| 2026-05-06 10:26 | 41.79883 | 31.76766 | 41129 ft | 482 kts | 109° |
| 2026-05-06 10:27 | 41.77552 | 31.85200 | 41129 ft | 482 kts | 109° |
| 2026-05-06 10:27 | 41.75217 | 31.93618 | 41132 ft | 482 kts | 109° |
| 2026-05-06 10:28 | 41.72875 | 32.02040 | 41130 ft | 482 kts | 109° |
| 2026-05-06 10:28 | 41.70528 | 32.10459 | 41130 ft | 482 kts | 109° |
| 2026-05-06 10:29 | 41.68184 | 32.18868 | 41130 ft | 482 kts | 109° |
| 2026-05-06 10:29 | 41.65834 | 32.27267 | 41127 ft | 482 kts | 109° |
| 2026-05-06 10:30 | 41.63483 | 32.35676 | 41131 ft | 483 kts | 110° |
| 2026-05-06 10:30 | 41.61109 | 32.44085 | 41130 ft | 484 kts | 110° |
| 2026-05-06 10:31 | 41.58723 | 32.52490 | 41124 ft | 484 kts | 110° |
| 2026-05-06 10:31 | 41.56338 | 32.60886 | 41123 ft | 483 kts | 110° |
| 2026-05-06 10:32 | 41.53947 | 32.69270 | 41116 ft | 483 kts | 110° |
| 2026-05-06 10:32 | 41.51548 | 32.77658 | 41102 ft | 483 kts | 110° |
| 2026-05-06 10:33 | 41.49148 | 32.86029 | 41098 ft | 484 kts | 110° |
| 2026-05-06 10:33 | 41.46739 | 32.94404 | 41094 ft | 483 kts | 110° |
| 2026-05-06 10:34 | 41.43951 | 33.02555 | 41083 ft | 483 kts | 117° |
| 2026-05-06 10:34 | 41.40750 | 33.10432 | 41074 ft | 484 kts | 118° |
| 2026-05-06 10:35 | 41.37475 | 33.18269 | 41074 ft | 484 kts | 119° |
| 2026-05-06 10:35 | 41.34218 | 33.26049 | 41071 ft | 485 kts | 118° |
| 2026-05-06 10:36 | 41.31020 | 33.33938 | 41072 ft | 485 kts | 118° |
| 2026-05-06 10:36 | 41.27861 | 33.41860 | 41076 ft | 485 kts | 117° |
| 2026-05-06 10:37 | 41.24739 | 33.49805 | 41075 ft | 485 kts | 117° |
| 2026-05-06 10:37 | 41.21614 | 33.57739 | 41075 ft | 485 kts | 117° |
| 2026-05-06 10:38 | 41.18474 | 33.65662 | 41080 ft | 485 kts | 118° |
| 2026-05-06 10:38 | 41.15835 | 33.72290 | 41082 ft | 485 kts | 118° |
| 2026-05-06 10:39 | 41.12701 | 33.80142 | 41077 ft | 485 kts | 118° |
| 2026-05-06 10:39 | 41.09539 | 33.88040 | 41077 ft | 485 kts | 118° |
| 2026-05-06 10:40 | 41.06352 | 33.95982 | 41082 ft | 485 kts | 118° |
| 2026-05-06 10:40 | 41.03183 | 34.03860 | 41083 ft | 485 kts | 118° |
| 2026-05-06 10:41 | 41.00004 | 34.11739 | 41083 ft | 485 kts | 118° |
| 2026-05-06 10:41 | 40.96843 | 34.19555 | 41082 ft | 485 kts | 118° |
| 2026-05-06 10:42 | 40.93654 | 34.27419 | 41078 ft | 485 kts | 118° |
| 2026-05-06 10:42 | 40.90458 | 34.35278 | 41075 ft | 485 kts | 118° |
| 2026-05-06 10:43 | 40.87258 | 34.43129 | 41069 ft | 485 kts | 118° |
| 2026-05-06 10:44 | 40.82442 | 34.54902 | 41065 ft | 486 kts | 119° |
| 2026-05-06 10:44 | 40.79224 | 34.62745 | 41069 ft | 487 kts | 119° |
| 2026-05-06 10:45 | 40.75995 | 34.70601 | 41065 ft | 487 kts | 118° |
| 2026-05-06 10:45 | 40.73541 | 34.78907 | 41068 ft | 487 kts | 108° |
| 2026-05-06 10:46 | 40.71590 | 34.87459 | 41073 ft | 487 kts | 106° |
| 2026-05-06 10:46 | 40.69716 | 34.96040 | 41066 ft | 487 kts | 106° |
| 2026-05-06 10:47 | 40.67832 | 35.04610 | 41062 ft | 487 kts | 107° |
| 2026-05-06 10:47 | 40.65925 | 35.13174 | 41059 ft | 487 kts | 107° |
| 2026-05-06 10:48 | 40.64005 | 35.21730 | 41060 ft | 487 kts | 107° |
| 2026-05-06 10:48 | 40.62076 | 35.30291 | 41059 ft | 487 kts | 107° |
| 2026-05-06 10:49 | 40.60142 | 35.38840 | 41062 ft | 488 kts | 107° |
| 2026-05-06 10:49 | 40.58200 | 35.47399 | 41061 ft | 488 kts | 107° |
| 2026-05-06 10:50 | 40.56252 | 35.55954 | 41059 ft | 488 kts | 107° |
| 2026-05-06 10:50 | 40.54297 | 35.64501 | 41061 ft | 488 kts | 107° |
| 2026-05-06 10:51 | 40.52334 | 35.73052 | 41063 ft | 489 kts | 107° |
| 2026-05-06 10:51 | 40.50378 | 35.81541 | 41070 ft | 489 kts | 107° |
| 2026-05-06 10:52 | 40.48403 | 35.90078 | 41067 ft | 489 kts | 108° |
| 2026-05-06 10:52 | 40.46419 | 35.98625 | 41079 ft | 489 kts | 108° |
| 2026-05-06 10:53 | 40.44430 | 36.07161 | 41089 ft | 489 kts | 108° |
| 2026-05-06 10:53 | 40.42436 | 36.15688 | 41094 ft | 489 kts | 108° |
| 2026-05-06 10:54 | 40.40433 | 36.24223 | 41097 ft | 489 kts | 108° |
| 2026-05-06 10:54 | 40.38423 | 36.32751 | 41101 ft | 490 kts | 108° |
| 2026-05-06 10:55 | 40.36406 | 36.41277 | 41103 ft | 490 kts | 108° |
| 2026-05-06 10:55 | 40.34382 | 36.49800 | 41098 ft | 489 kts | 108° |
| 2026-05-06 10:56 | 40.32354 | 36.58313 | 41084 ft | 489 kts | 108° |
| 2026-05-06 10:56 | 40.30321 | 36.66813 | 41081 ft | 489 kts | 108° |
| 2026-05-06 10:57 | 40.28281 | 36.75312 | 41080 ft | 489 kts | 108° |
| 2026-05-06 10:57 | 40.26234 | 36.83810 | 41083 ft | 489 kts | 108° |
| 2026-05-06 10:58 | 40.24180 | 36.92304 | 41084 ft | 490 kts | 109° |
| 2026-05-06 10:58 | 40.22120 | 37.00789 | 41081 ft | 490 kts | 109° |
| 2026-05-06 10:59 | 40.20053 | 37.09277 | 41078 ft | 490 kts | 109° |
| 2026-05-06 10:59 | 40.17979 | 37.17762 | 41084 ft | 490 kts | 109° |
| 2026-05-06 11:00 | 40.15898 | 37.26248 | 41091 ft | 490 kts | 109° |
| 2026-05-06 11:00 | 40.13810 | 37.34725 | 41082 ft | 490 kts | 109° |
| 2026-05-06 11:01 | 40.11717 | 37.43201 | 41076 ft | 490 kts | 109° |
| 2026-05-06 11:01 | 40.09615 | 37.51675 | 41097 ft | 490 kts | 109° |
| 2026-05-06 11:02 | 40.07511 | 37.60073 | 41079 ft | 490 kts | 110° |
| 2026-05-06 11:02 | 40.05116 | 37.68395 | 41077 ft | 490 kts | 113° |
| 2026-05-06 11:03 | 40.02616 | 37.76663 | 41073 ft | 490 kts | 113° |
| 2026-05-06 11:03 | 40.00130 | 37.84997 | 41074 ft | 490 kts | 112° |
| 2026-05-06 11:04 | 39.97703 | 37.93223 | 41081 ft | 490 kts | 112° |
| 2026-05-06 11:04 | 39.95263 | 38.01508 | 41068 ft | 490 kts | 112° |
| 2026-05-06 11:05 | 39.92815 | 38.09790 | 41079 ft | 490 kts | 112° |
| 2026-05-06 11:05 | 39.90358 | 38.18075 | 41070 ft | 490 kts | 112° |
| 2026-05-06 11:06 | 39.87898 | 38.26338 | 41070 ft | 490 kts | 113° |
| 2026-05-06 11:06 | 39.85428 | 38.34610 | 41064 ft | 490 kts | 113° |
| 2026-05-06 11:07 | 39.82950 | 38.42881 | 41059 ft | 490 kts | 113° |
| 2026-05-06 11:07 | 39.80468 | 38.51145 | 41058 ft | 490 kts | 113° |
| 2026-05-06 11:08 | 39.77980 | 38.59398 | 41065 ft | 491 kts | 114° |
| 2026-05-06 11:08 | 39.75483 | 38.67658 | 41054 ft | 491 kts | 114° |
| 2026-05-06 11:09 | 39.72983 | 38.75903 | 41051 ft | 491 kts | 114° |
| 2026-05-06 11:09 | 39.70477 | 38.84141 | 41048 ft | 491 kts | 114° |
| 2026-05-06 11:10 | 39.67963 | 38.92384 | 41051 ft | 491 kts | 114° |
| 2026-05-06 11:10 | 39.65441 | 39.00625 | 41050 ft | 491 kts | 114° |
| 2026-05-06 11:11 | 39.62913 | 39.08862 | 41047 ft | 492 kts | 114° |
| 2026-05-06 11:11 | 39.60392 | 39.17049 | 41046 ft | 492 kts | 114° |
| 2026-05-06 11:12 | 39.57850 | 39.25281 | 41050 ft | 492 kts | 114° |
| 2026-05-06 11:12 | 39.55301 | 39.33511 | 41042 ft | 492 kts | 115° |
| 2026-05-06 11:13 | 39.52743 | 39.41745 | 41048 ft | 493 kts | 115° |
| 2026-05-06 11:13 | 39.50208 | 39.49990 | 41047 ft | 493 kts | 112° |
| 2026-05-06 11:14 | 39.48029 | 39.58420 | 41038 ft | 495 kts | 110° |
| 2026-05-06 11:14 | 39.45951 | 39.66912 | 41045 ft | 495 kts | 110° |
| 2026-05-06 11:15 | 39.43818 | 39.75378 | 41049 ft | 495 kts | 111° |
| 2026-05-06 11:15 | 39.41637 | 39.83826 | 41054 ft | 495 kts | 111° |
| 2026-05-06 11:16 | 39.39438 | 39.92270 | 41051 ft | 496 kts | 112° |
| 2026-05-06 11:16 | 39.37230 | 40.00721 | 41053 ft | 497 kts | 112° |
| 2026-05-06 11:17 | 39.35018 | 40.09170 | 41056 ft | 497 kts | 112° |
| 2026-05-06 11:17 | 39.32631 | 40.17516 | 41065 ft | 493 kts | 120° |
| 2026-05-06 11:18 | 39.28988 | 40.24835 | 41073 ft | 486 kts | 130° |
| 2026-05-06 11:18 | 39.24886 | 40.31853 | 41054 ft | 486 kts | 132° |
| 2026-05-06 11:19 | 39.20746 | 40.38751 | 41076 ft | 486 kts | 132° |
| 2026-05-06 11:19 | 39.16613 | 40.45657 | 41075 ft | 486 kts | 131° |
| 2026-05-06 11:20 | 39.12522 | 40.52521 | 41077 ft | 486 kts | 131° |
| 2026-05-06 11:20 | 39.08401 | 40.59434 | 41074 ft | 487 kts | 132° |
| 2026-05-06 11:21 | 39.04279 | 40.66336 | 41073 ft | 487 kts | 132° |
| 2026-05-06 11:21 | 39.00152 | 40.73229 | 41078 ft | 486 kts | 132° |
| 2026-05-06 11:22 | 38.96019 | 40.80117 | 41076 ft | 487 kts | 132° |
| 2026-05-06 11:22 | 38.91877 | 40.87003 | 41078 ft | 487 kts | 132° |
| 2026-05-06 11:23 | 38.87735 | 40.93875 | 41080 ft | 487 kts | 132° |
| 2026-05-06 11:23 | 38.83585 | 41.00746 | 41077 ft | 487 kts | 133° |
| 2026-05-06 11:24 | 38.79429 | 41.07611 | 41084 ft | 487 kts | 133° |
| 2026-05-06 11:24 | 38.75264 | 41.14478 | 41075 ft | 488 kts | 133° |
| 2026-05-06 11:25 | 38.71099 | 41.21332 | 41079 ft | 488 kts | 133° |
| 2026-05-06 11:25 | 38.67629 | 41.27029 | 41077 ft | 488 kts | 133° |
| 2026-05-06 11:26 | 38.63447 | 41.33881 | 41077 ft | 488 kts | 133° |
| 2026-05-06 11:26 | 38.59269 | 41.40716 | 41071 ft | 488 kts | 133° |
| 2026-05-06 11:27 | 38.55182 | 41.47669 | 41076 ft | 490 kts | 131° |
| 2026-05-06 11:27 | 38.51177 | 41.54708 | 41053 ft | 490 kts | 131° |
| 2026-05-06 11:28 | 38.47161 | 41.61727 | 41075 ft | 489 kts | 131° |
| 2026-05-06 11:28 | 38.43123 | 41.68720 | 41080 ft | 490 kts | 131° |
| 2026-05-06 11:29 | 38.39068 | 41.75706 | 41060 ft | 490 kts | 131° |
| 2026-05-06 11:29 | 38.35007 | 41.82684 | 41077 ft | 490 kts | 132° |
| 2026-05-06 11:30 | 38.30948 | 41.89663 | 41079 ft | 490 kts | 132° |
| 2026-05-06 11:30 | 38.26883 | 41.96624 | 41087 ft | 490 kts | 132° |
| 2026-05-06 11:31 | 38.22813 | 42.03577 | 41072 ft | 490 kts | 132° |
| 2026-05-06 11:31 | 38.18744 | 42.10517 | 41081 ft | 490 kts | 132° |
| 2026-05-06 11:32 | 38.14665 | 42.17459 | 41070 ft | 490 kts | 133° |
| 2026-05-06 11:32 | 38.10612 | 42.24346 | 41075 ft | 490 kts | 133° |
| 2026-05-06 11:33 | 38.06528 | 42.31270 | 41067 ft | 490 kts | 132° |
| 2026-05-06 11:33 | 38.02442 | 42.38181 | 41068 ft | 490 kts | 132° |
| 2026-05-06 11:34 | 37.98345 | 42.45094 | 41076 ft | 490 kts | 133° |
| 2026-05-06 11:34 | 37.94254 | 42.51988 | 41052 ft | 490 kts | 133° |
| 2026-05-06 11:35 | 37.90153 | 42.58886 | 41070 ft | 489 kts | 133° |
| 2026-05-06 11:35 | 37.86102 | 42.65822 | 41072 ft | 493 kts | 128° |
| 2026-05-06 11:36 | 37.82460 | 42.73187 | 41067 ft | 494 kts | 127° |
| 2026-05-06 11:36 | 37.78904 | 42.80629 | 41078 ft | 495 kts | 127° |
| 2026-05-06 11:37 | 37.75358 | 42.88082 | 41074 ft | 495 kts | 127° |
| 2026-05-06 11:37 | 37.71803 | 42.95511 | 41073 ft | 494 kts | 127° |
| 2026-05-06 11:38 | 37.68241 | 43.02923 | 41088 ft | 493 kts | 127° |
| 2026-05-06 11:38 | 37.64673 | 43.10321 | 41088 ft | 493 kts | 127° |
| 2026-05-06 11:39 | 37.61104 | 43.17708 | 41075 ft | 493 kts | 127° |
| 2026-05-06 11:39 | 37.57527 | 43.25093 | 41093 ft | 493 kts | 127° |
| 2026-05-06 11:40 | 37.53950 | 43.32471 | 41081 ft | 493 kts | 128° |
| 2026-05-06 11:40 | 37.50367 | 43.39837 | 41095 ft | 492 kts | 128° |
| 2026-05-06 11:41 | 37.46787 | 43.47179 | 41090 ft | 493 kts | 128° |
| 2026-05-06 11:41 | 37.43193 | 43.54531 | 41061 ft | 494 kts | 128° |
| 2026-05-06 11:42 | 37.39590 | 43.61891 | 41092 ft | 494 kts | 128° |
| 2026-05-06 11:42 | 37.36010 | 43.69191 | 41087 ft | 493 kts | 128° |
| 2026-05-06 11:43 | 37.32407 | 43.76521 | 41070 ft | 493 kts | 129° |
| 2026-05-06 11:43 | 37.28794 | 43.83850 | 41086 ft | 493 kts | 129° |
| 2026-05-06 11:44 | 37.24785 | 43.90711 | 41078 ft | 478 kts | 143° |
| 2026-05-06 11:44 | 37.22303 | 43.93390 | 41080 ft | 466 kts | 153° |
| 2026-05-06 11:44 | 37.19557 | 43.95428 | 41081 ft | 453 kts | 163° |
| 2026-05-06 11:44 | 37.16677 | 43.96989 | 41087 ft | 450 kts | 166° |
| 2026-05-06 11:45 | 37.10828 | 43.99752 | 41073 ft | 448 kts | 168° |
| 2026-05-06 11:45 | 37.04967 | 44.02399 | 41049 ft | 447 kts | 168° |
| 2026-05-06 11:46 | 36.99111 | 44.05074 | 41069 ft | 450 kts | 168° |
| 2026-05-06 11:46 | 36.93233 | 44.07788 | 41057 ft | 450 kts | 167° |
| 2026-05-06 11:47 | 36.87360 | 44.10515 | 41056 ft | 450 kts | 167° |
| 2026-05-06 11:47 | 36.81491 | 44.13236 | 41047 ft | 450 kts | 167° |
| 2026-05-06 11:48 | 36.75618 | 44.15952 | 41051 ft | 450 kts | 167° |
| 2026-05-06 11:48 | 36.69766 | 44.18652 | 41050 ft | 450 kts | 168° |
| 2026-05-06 11:49 | 36.63888 | 44.21352 | 41038 ft | 450 kts | 168° |
| 2026-05-06 11:49 | 36.58012 | 44.24048 | 41012 ft | 450 kts | 168° |
| 2026-05-06 11:50 | 36.52137 | 44.26741 | 41037 ft | 450 kts | 168° |
| 2026-05-06 11:50 | 36.46267 | 44.29429 | 41036 ft | 449 kts | 168° |
| 2026-05-06 11:51 | 36.40399 | 44.32112 | 41024 ft | 449 kts | 168° |
| 2026-05-06 11:51 | 36.34535 | 44.34789 | 41037 ft | 449 kts | 168° |
| 2026-05-06 11:52 | 36.28709 | 44.37442 | 41039 ft | 449 kts | 168° |
| 2026-05-06 11:52 | 36.22847 | 44.40109 | 41026 ft | 449 kts | 168° |
| 2026-05-06 11:53 | 36.16988 | 44.42770 | 41022 ft | 448 kts | 168° |
| 2026-05-06 11:53 | 36.11139 | 44.45422 | 40996 ft | 448 kts | 168° |
| 2026-05-06 11:54 | 36.05277 | 44.48075 | 41027 ft | 449 kts | 169° |
| 2026-05-06 11:54 | 35.99411 | 44.50727 | 41019 ft | 449 kts | 169° |
| 2026-05-06 11:55 | 35.93549 | 44.53373 | 41009 ft | 448 kts | 169° |
| 2026-05-06 11:55 | 35.87687 | 44.56014 | 41019 ft | 449 kts | 169° |
| 2026-05-06 11:56 | 35.81815 | 44.58654 | 41016 ft | 449 kts | 169° |
| 2026-05-06 11:56 | 35.75955 | 44.61286 | 41011 ft | 448 kts | 169° |
| 2026-05-06 11:57 | 35.70100 | 44.63913 | 41013 ft | 448 kts | 169° |
| 2026-05-06 11:57 | 35.64243 | 44.66535 | 40996 ft | 448 kts | 170° |
| 2026-05-06 11:58 | 35.58394 | 44.69149 | 41020 ft | 447 kts | 170° |
| 2026-05-06 11:58 | 35.52542 | 44.71762 | 41013 ft | 447 kts | 170° |
| 2026-05-06 11:59 | 35.46702 | 44.74364 | 41010 ft | 447 kts | 170° |
| 2026-05-06 11:59 | 35.40857 | 44.76965 | 41013 ft | 446 kts | 170° |
| 2026-05-06 12:00 | 35.35023 | 44.79557 | 40995 ft | 446 kts | 170° |
| 2026-05-06 12:00 | 35.29185 | 44.82148 | 41012 ft | 446 kts | 170° |
| 2026-05-06 12:01 | 35.23354 | 44.84730 | 41013 ft | 446 kts | 170° |
| 2026-05-06 12:01 | 35.17523 | 44.87308 | 41010 ft | 446 kts | 170° |
| 2026-05-06 12:02 | 35.11691 | 44.89883 | 41010 ft | 446 kts | 170° |
| 2026-05-06 12:02 | 35.05862 | 44.92453 | 41009 ft | 445 kts | 170° |
| 2026-05-06 12:03 | 35.00028 | 44.95021 | 41009 ft | 445 kts | 170° |
| 2026-05-06 12:03 | 34.94198 | 44.97584 | 41009 ft | 445 kts | 170° |
| 2026-05-06 12:04 | 34.88368 | 45.00142 | 40993 ft | 445 kts | 170° |
| 2026-05-06 12:04 | 34.82553 | 45.02692 | 41006 ft | 444 kts | 170° |
| 2026-05-06 12:05 | 34.76742 | 45.05235 | 41004 ft | 443 kts | 170° |
| 2026-05-06 12:05 | 34.70940 | 45.07769 | 41006 ft | 443 kts | 171° |
| 2026-05-06 12:06 | 34.65137 | 45.10301 | 41004 ft | 443 kts | 171° |
| 2026-05-06 12:06 | 34.59380 | 45.12808 | 40983 ft | 442 kts | 171° |
| 2026-05-06 12:07 | 34.53590 | 45.15326 | 41001 ft | 442 kts | 171° |
| 2026-05-06 12:07 | 34.47748 | 45.16965 | 41005 ft | 423 kts | 184° |
| 2026-05-06 12:08 | 34.41912 | 45.17516 | 40980 ft | 420 kts | 186° |
| 2026-05-06 12:08 | 34.36084 | 45.17888 | 41002 ft | 419 kts | 186° |
| 2026-05-06 12:09 | 34.30258 | 45.18250 | 41001 ft | 419 kts | 186° |
| 2026-05-06 12:09 | 34.24434 | 45.18634 | 40988 ft | 419 kts | 186° |
| 2026-05-06 12:10 | 34.18610 | 45.19030 | 40999 ft | 419 kts | 186° |
| 2026-05-06 12:10 | 34.12790 | 45.19427 | 41002 ft | 419 kts | 186° |
| 2026-05-06 12:11 | 34.06973 | 45.19823 | 40969 ft | 419 kts | 186° |
| 2026-05-06 12:11 | 34.01156 | 45.20218 | 41001 ft | 418 kts | 186° |
| 2026-05-06 12:12 | 33.95344 | 45.20611 | 41002 ft | 418 kts | 186° |
| 2026-05-06 12:12 | 33.89535 | 45.21004 | 41001 ft | 418 kts | 186° |
| 2026-05-06 12:13 | 33.84705 | 45.21330 | 41007 ft | 418 kts | 186° |
| 2026-05-06 12:13 | 33.78898 | 45.21722 | 41015 ft | 418 kts | 186° |
| 2026-05-06 12:14 | 33.73089 | 45.22113 | 41015 ft | 418 kts | 186° |
| 2026-05-06 12:14 | 33.67285 | 45.22504 | 41029 ft | 418 kts | 186° |
| 2026-05-06 12:15 | 33.61479 | 45.22894 | 41029 ft | 418 kts | 186° |
| 2026-05-06 12:15 | 33.55676 | 45.23283 | 41030 ft | 418 kts | 186° |
| 2026-05-06 12:16 | 33.49870 | 45.23672 | 41033 ft | 418 kts | 186° |
| 2026-05-06 12:16 | 33.44065 | 45.24060 | 41039 ft | 418 kts | 186° |
| 2026-05-06 12:17 | 33.38262 | 45.24448 | 41033 ft | 418 kts | 186° |
| 2026-05-06 12:17 | 33.32441 | 45.25274 | 41031 ft | 431 kts | 176° |
| 2026-05-06 12:18 | 33.29560 | 45.26397 | 41031 ft | 442 kts | 167° |
| 2026-05-06 12:18 | 33.26793 | 45.28126 | 41034 ft | 457 kts | 157° |
| 2026-05-06 12:18 | 33.21617 | 45.32697 | 41031 ft | 466 kts | 152° |
| 2026-05-06 12:19 | 33.16556 | 45.37568 | 41028 ft | 468 kts | 152° |
| 2026-05-06 12:19 | 33.11493 | 45.42433 | 41029 ft | 467 kts | 152° |
| 2026-05-06 12:20 | 33.06403 | 45.47250 | 40996 ft | 466 kts | 153° |
| 2026-05-06 12:20 | 33.01339 | 45.52004 | 41023 ft | 467 kts | 153° |
| 2026-05-06 12:21 | 32.96234 | 45.56783 | 41020 ft | 467 kts | 153° |
| 2026-05-06 12:21 | 32.91123 | 45.61566 | 41012 ft | 467 kts | 153° |
| 2026-05-06 12:22 | 32.86009 | 45.66344 | 41017 ft | 467 kts | 153° |
| 2026-05-06 12:22 | 32.80899 | 45.71121 | 41013 ft | 468 kts | 153° |
| 2026-05-06 12:23 | 32.75781 | 45.75897 | 41013 ft | 468 kts | 153° |
| 2026-05-06 12:23 | 32.70656 | 45.80669 | 41011 ft | 468 kts | 153° |
| 2026-05-06 12:24 | 32.65528 | 45.85438 | 40991 ft | 468 kts | 153° |
| 2026-05-06 12:24 | 32.60397 | 45.90204 | 41007 ft | 469 kts | 153° |
| 2026-05-06 12:25 | 32.55264 | 45.94966 | 41007 ft | 469 kts | 153° |
| 2026-05-06 12:25 | 32.50123 | 45.99728 | 40995 ft | 469 kts | 153° |
| 2026-05-06 12:26 | 32.44976 | 46.04486 | 41003 ft | 470 kts | 153° |
| 2026-05-06 12:26 | 32.39821 | 46.09246 | 41001 ft | 470 kts | 153° |
| 2026-05-06 12:27 | 32.34667 | 46.13999 | 40998 ft | 470 kts | 154° |
| 2026-05-06 12:27 | 32.29503 | 46.18752 | 40995 ft | 471 kts | 154° |
| 2026-05-06 12:28 | 32.24339 | 46.23501 | 40986 ft | 470 kts | 154° |
| 2026-05-06 12:28 | 32.19173 | 46.28244 | 40983 ft | 470 kts | 154° |
| 2026-05-06 12:29 | 32.14004 | 46.32981 | 40981 ft | 470 kts | 154° |
| 2026-05-06 12:29 | 32.08836 | 46.37711 | 40956 ft | 470 kts | 154° |
| 2026-05-06 12:30 | 32.03668 | 46.42433 | 40965 ft | 470 kts | 154° |
| 2026-05-06 12:30 | 31.98490 | 46.47158 | 40966 ft | 470 kts | 154° |
| 2026-05-06 12:31 | 31.93313 | 46.51876 | 40952 ft | 470 kts | 154° |
| 2026-05-06 12:31 | 31.88135 | 46.56587 | 40955 ft | 470 kts | 154° |
| 2026-05-06 12:32 | 31.82958 | 46.61291 | 40950 ft | 471 kts | 154° |
| 2026-05-06 12:32 | 31.77809 | 46.65962 | 40942 ft | 471 kts | 154° |
| 2026-05-06 12:33 | 31.72621 | 46.70662 | 40939 ft | 471 kts | 154° |
| 2026-05-06 12:33 | 31.67437 | 46.75352 | 40933 ft | 471 kts | 154° |
| 2026-05-06 12:34 | 31.62251 | 46.80036 | 40927 ft | 471 kts | 154° |
| 2026-05-06 12:34 | 31.57062 | 46.84716 | 40924 ft | 471 kts | 154° |
| 2026-05-06 12:35 | 31.51873 | 46.89390 | 40891 ft | 470 kts | 154° |
| 2026-05-06 12:35 | 31.46678 | 46.94062 | 40918 ft | 471 kts | 154° |
| 2026-05-06 12:36 | 31.41481 | 46.98729 | 40914 ft | 471 kts | 154° |
| 2026-05-06 12:36 | 31.36281 | 47.03393 | 40905 ft | 471 kts | 154° |
| 2026-05-06 12:37 | 31.31072 | 47.08057 | 40906 ft | 471 kts | 154° |
| 2026-05-06 12:37 | 31.25865 | 47.12714 | 40901 ft | 471 kts | 154° |
| 2026-05-06 12:38 | 31.20655 | 47.17368 | 40880 ft | 471 kts | 154° |
| 2026-05-06 12:38 | 31.15442 | 47.22015 | 40896 ft | 471 kts | 154° |
| 2026-05-06 12:39 | 31.10226 | 47.26659 | 40889 ft | 472 kts | 154° |
| 2026-05-06 12:39 | 31.05010 | 47.31298 | 40885 ft | 472 kts | 154° |
| 2026-05-06 12:40 | 30.99792 | 47.35931 | 40892 ft | 471 kts | 155° |
| 2026-05-06 12:40 | 30.94572 | 47.40560 | 40888 ft | 471 kts | 155° |
| 2026-05-06 12:41 | 30.89344 | 47.45187 | 40885 ft | 472 kts | 155° |
| 2026-05-06 12:41 | 30.84111 | 47.49814 | 40883 ft | 472 kts | 155° |